Date,TemperatureHighF,TemperatureAvgF,TemperatureLowF,DewpointHighF,DewpointAvgF,DewpointLowF,HumidityHigh,HumidityAvg,HumidityLow,PressureMaxIn,PressureMinIn,WindSpeedMaxMPH,WindSpeedAvgMPH,GustSpeedMaxMPH,PrecipitationSumIn
2013-2-1,28.1,24.5,17.7,20.5,10.5,5.2,80,55,41,30.34,29.83,10,5,21,0.00
2013-2-2,25.1,20.1,13.1,21.8,12.0,5.2,94,72,51,30.37,30.04,4,2,9,0.00
2013-2-3,31.4,25.6,18.5,26.3,22.5,14.2,96,88,63,30.04,29.82,8,1,13,0.05
2013-2-4,31.3,25.6,19.4,21.6,15.1,10.9,76,64,52,30.08,29.91,7,2,10,0.00
2013-2-5,33.2,30.1,27.7,29.7,26.8,21.6,96,88,76,29.96,29.89,3,1,5,0.00
2013-2-6,38.2,30.9,23.6,29.8,25.4,18.2,98,81,60,30.37,29.94,6,1,11,0.01
2013-2-7,34.4,28.7,21.3,24.7,19.5,14.1,90,70,44,30.48,30.26,6,2,12,0.00
2013-2-8,36.6,33.5,30.1,35.6,31.0,23.4,98,91,73,30.26,29.73,10,2,20,0.14
2013-2-9,34.0,27.5,22.1,24.3,18.1,15.2,79,68,56,30.40,29.86,10,5,19,0.00
2013-2-10,41.2,28.9,16.2,24.6,15.8,7.6,86,61,28,30.50,30.27,6,2,9,0.03
2013-2-11,47.0,39.5,32.0,46.5,37.7,24.6,99,93,71,30.27,29.68,5,2,11,0.27
2013-2-12,44.4,38.8,28.6,33.5,28.1,23.8,84,66,53,30.00,29.79,6,2,11,0.00
2013-2-13,41.3,32.6,22.7,32.6,27.8,20.7,97,83,65,29.97,29.69,5,1,7,0.02
2013-2-14,45.4,36.3,30.5,32.6,29.9,26.3,98,79,49,30.01,29.75,4,2,7,0.08
2013-2-15,55.4,41.6,32.0,37.4,32.7,29.3,97,73,43,30.03,29.92,5,2,9,0.10
2013-2-16,35.1,31.6,28.4,32.9,27.4,16.8,98,85,61,30.00,29.82,2,0,7,0.14
2013-2-17,29.2,25.2,20.2,18.5,11.7,4.5,73,56,41,30.16,29.81,10,5,23,0.00
2013-2-18,37.7,26.6,17.6,20.4,11.2,5.3,66,53,35,30.36,30.16,8,3,14,0.00
2013-2-19,40.5,35.8,30.1,38.9,30.1,20.1,96,80,61,30.17,29.71,7,3,17,0.14
2013-2-20,33.7,27.3,22.2,25.3,15.3,10.6,76,60,49,30.11,29.81,9,6,18,0.00
2013-2-21,33.8,26.8,21.9,18.4,14.9,11.2,72,61,50,30.34,30.10,8,4,17,0.00
2013-2-22,33.6,28.5,22.5,30.0,22.2,16.6,91,77,66,30.41,30.24,6,2,10,0.00
2013-2-23,43.6,37.3,31.4,43.1,36.6,29.8,98,97,91,30.25,29.82,3,0,5,0.10
2013-2-24,43.5,37.2,29.4,38.9,30.6,21.3,99,78,55,30.08,29.80,9,3,17,0.00
2013-2-25,46.2,35.6,27.7,29.4,24.7,20.2,77,65,47,30.23,30.08,4,2,10,0.00
2013-2-26,41.6,35.1,26.1,36.6,30.6,22.9,96,84,69,30.25,29.70,9,4,15,0.38
2013-2-27,50.9,42.9,36.9,42.0,37.9,33.6,98,84,65,29.70,29.52,7,3,17,0.13
2013-2-28,45.4,39.5,33.1,35.8,32.3,27.4,90,76,52,29.69,29.60,5,2,8,0.00